Time;durP1;ratioP1;P1;durP2;ratioP2;P2;SDS_P1;SDS_P2;PMS_P1;PMS_P2;Temp;Humidity;BMP_temperature;BMP_pressure;BME280_temperature;BME280_humidity;BME280_pressure;Samples;Min_cycle;Max_cycle;Signal;HPM_P1;HPM_P2
2022/06/04 00:00:46;;;;;;;;;32.50;29.50;;;;;;;;5051751;28;45503;-64
2022/06/04 00:03:11;;;;;;;;;25.25;23.75;;;;;;;;5049827;28;46436;-65
2022/06/04 00:05:39;;;;;;;;;30.75;29.50;;;;;;;;5041868;28;45489;-64
2022/06/04 00:08:05;;;;;;;;;25.50;25.50;;;;;;;;5060661;28;45310;-64
2022/06/04 00:16:00;;;;;;;;;26.25;24.00;;;;;;;;5065294;28;45270;-65
2022/06/04 00:18:26;;;;;;;;;26.25;26.00;;;;;;;;5067900;28;45389;-65
2022/06/04 00:20:51;;;;;;;;;26.25;26.25;;;;;;;;5070927;28;45280;-64
2022/06/04 00:23:17;;;;;;;;;30.75;29.00;;;;;;;;5062488;28;45526;-65
2022/06/04 00:25:45;;;;;;;;;24.00;21.75;;;;;;;;5071576;28;48034;-64
2022/06/04 00:28:10;;;;;;;;;32.00;29.50;;;;;;;;5067604;28;45262;-65
2022/06/04 00:30:36;;;;;;;;;26.50;26.00;;;;;;;;5061768;28;45489;-65
2022/06/04 00:33:02;;;;;;;;;7.00;4.25;;;;;;;;5050546;28;46480;-65
2022/06/04 00:35:27;;;;;;;;;35.50;33.00;;;;;;;;5063890;28;45357;-65
2022/06/04 00:37:53;;;;;;;;;29.25;28.00;;;;;;;;5071533;28;46136;-65
2022/06/04 00:40:32;;;;;;;;;28.50;25.00;;;;;;;;5066940;28;45431;-65
2022/06/04 00:42:57;;;;;;;;;23.50;23.50;;;;;;;;5069451;28;46065;-65
2022/06/04 00:45:23;;;;;;;;;25.75;24.50;;;;;;;;5065622;28;45354;-64
2022/06/04 00:47:48;;;;;;;;;26.50;26.50;;;;;;;;5064534;28;45622;-65
2022/06/04 00:50:18;;;;;;;;;25.75;25.75;;;;;;;;5073555;28;45523;-65
2022/06/04 00:52:45;;;;;;;;;33.25;30.25;;;;;;;;5062318;28;45650;-65
2022/06/04 00:55:10;;;;;;;;;22.75;22.75;;;;;;;;5071971;28;45490;-65
2022/06/04 00:57:45;;;;;;;;;28.00;28.00;;;;;;;;5046553;28;45524;-65
2022/06/04 01:00:17;;;;;;;;;30.50;27.25;;;;;;;;5055144;28;45496;-65
2022/06/04 01:02:48;;;;;;;;;24.75;24.25;;;;;;;;5070869;28;45649;-65
2022/06/04 01:05:23;;;;;;;;;23.50;23.50;;;;;;;;5045153;28;45374;-64
2022/06/04 01:08:02;;;;;;;;;26.50;26.50;;;;;;;;5070898;28;45475;-65
2022/06/04 01:10:46;;;;;;;;;25.00;25.00;;;;;;;;5062515;28;45390;-64
2022/06/04 01:13:26;;;;;;;;;28.75;27.25;;;;;;;;5069486;28;45714;-64
2022/06/04 01:16:10;;;;;;;;;26.50;26.50;;;;;;;;5060351;28;45469;-64
2022/06/04 01:18:36;;;;;;;;;38.00;34.00;;;;;;;;5060693;28;45919;-65
2022/06/04 01:21:13;;;;;;;;;32.00;31.00;;;;;;;;5058488;28;45457;-64
2022/06/04 01:23:57;;;;;;;;;26.50;26.50;;;;;;;;5062043;28;45747;-65
2022/06/04 01:26:25;;;;;;;;;28.50;26.00;;;;;;;;5058243;28;45966;-65
2022/06/04 01:28:54;;;;;;;;;17.50;17.50;;;;;;;;5054158;28;45326;-64
2022/06/04 01:31:26;;;;;;;;;27.00;25.75;;;;;;;;5071850;28;45725;-64
2022/06/04 01:33:54;;;;;;;;;21.25;21.25;;;;;;;;5042057;28;45512;-63
2022/06/04 01:36:24;;;;;;;;;27.75;27.75;;;;;;;;5056605;28;45444;-65
2022/06/04 01:39:11;;;;;;;;;32.75;31.75;;;;;;;;5058871;28;45420;-65
2022/06/04 01:42:00;;;;;;;;;26.25;24.75;;;;;;;;5040611;28;45583;-65
2022/06/04 01:44:28;;;;;;;;;24.25;24.25;;;;;;;;5034111;28;46457;-65
2022/06/04 01:46:56;;;;;;;;;25.50;25.50;;;;;;;;5070533;28;45342;-64
2022/06/04 01:49:24;;;;;;;;;33.25;30.00;;;;;;;;5068226;28;45333;-65
2022/06/04 01:51:51;;;;;;;;;32.00;29.00;;;;;;;;5039337;28;45458;-64
2022/06/04 01:54:22;;;;;;;;;30.00;28.75;;;;;;;;5055289;28;46099;-64
2022/06/04 01:56:50;;;;;;;;;29.50;27.50;;;;;;;;5055464;28;45341;-65
2022/06/04 01:59:15;;;;;;;;;25.25;24.00;;;;;;;;5055511;28;45483;-65
2022/06/04 02:01:41;;;;;;;;;28.25;26.50;;;;;;;;5055497;28;45403;-65
2022/06/04 02:04:16;;;;;;;;;27.25;26.75;;;;;;;;5042696;28;46148;-64
2022/06/04 02:07:29;;;;;;;;;28.75;28.75;;;;;;;;5055656;28;47810;-65
2022/06/04 02:09:34;;;;;;;;;31.25;28.50;;;;;;;;5055026;28;45440;-65
2022/06/04 02:11:59;;;;;;;;;25.25;23.50;;;;;;;;5054231;28;45547;-65
2022/06/04 02:14:25;;;;;;;;;25.75;24.25;;;;;;;;5055042;28;46246;-65
2022/06/04 02:16:54;;;;;;;;;28.00;28.00;;;;;;;;5055244;28;45369;-64
2022/06/04 02:19:20;;;;;;;;;29.50;27.75;;;;;;;;5056002;28;45340;-64
2022/06/04 02:21:45;;;;;;;;;28.25;28.00;;;;;;;;5055040;28;45250;-64
2022/06/04 02:24:10;;;;;;;;;25.75;25.75;;;;;;;;5055080;28;46992;-65
2022/06/04 02:26:37;;;;;;;;;26.00;24.75;;;;;;;;5039239;28;45490;-65
2022/06/04 02:29:03;;;;;;;;;25.25;25.25;;;;;;;;5055073;28;45590;-65
2022/06/04 02:31:33;;;;;;;;;24.25;24.25;;;;;;;;5040641;28;45473;-64
2022/06/04 02:34:17;;;;;;;;;27.00;24.75;;;;;;;;5053269;28;47387;-64
2022/06/04 02:36:55;;;;;;;;;30.25;27.75;;;;;;;;5057255;28;45914;-65
2022/06/04 02:39:25;;;;;;;;;25.25;24.75;;;;;;;;5041019;28;45391;-64
2022/06/04 02:41:59;;;;;;;;;26.00;24.50;;;;;;;;5055961;28;45532;-64
2022/06/04 02:44:29;;;;;;;;;25.50;24.50;;;;;;;;5048860;28;46415;-63
2022/06/04 02:47:08;;;;;;;;;25.50;24.50;;;;;;;;5055129;28;45405;-64
2022/06/04 02:49:50;;;;;;;;;29.75;28.00;;;;;;;;5041103;28;45603;-64
2022/06/04 02:52:16;;;;;;;;;24.50;24.50;;;;;;;;5057452;28;45295;-64
2022/06/04 02:54:51;;;;;;;;;26.25;25.50;;;;;;;;5055526;28;45516;-64
2022/06/04 02:57:17;;;;;;;;;27.50;27.25;;;;;;;;5053408;28;45383;-65
2022/06/04 02:59:44;;;;;;;;;26.25;25.50;;;;;;;;5040358;28;45402;-64
2022/06/04 03:02:12;;;;;;;;;29.25;26.00;;;;;;;;5057058;28;45392;-64
2022/06/04 03:04:41;;;;;;;;;24.00;24.00;;;;;;;;5056886;28;45962;-63
2022/06/04 03:07:07;;;;;;;;;30.00;26.25;;;;;;;;5057427;28;45396;-64
2022/06/04 03:09:32;;;;;;;;;27.00;24.00;;;;;;;;5053885;28;45153;-64
2022/06/04 03:11:58;;;;;;;;;23.00;23.00;;;;;;;;5058221;28;45332;-64
2022/06/04 03:14:24;;;;;;;;;23.50;23.25;;;;;;;;5038353;28;46476;-64
2022/06/04 03:16:49;;;;;;;;;28.25;25.25;;;;;;;;5039958;28;45482;-64
2022/06/04 03:19:15;;;;;;;;;24.00;24.00;;;;;;;;5057379;28;45273;-64
2022/06/04 03:21:41;;;;;;;;;25.25;25.25;;;;;;;;5055083;28;45373;-65
2022/06/04 03:24:08;;;;;;;;;26.75;24.75;;;;;;;;5059088;28;45820;-67
2022/06/04 03:26:33;;;;;;;;;30.00;27.75;;;;;;;;5062484;28;45377;-65
2022/06/04 03:28:59;;;;;;;;;24.50;23.50;;;;;;;;5044085;28;45364;-65
2022/06/04 03:31:28;;;;;;;;;25.25;24.50;;;;;;;;5060781;28;45303;-66
2022/06/04 03:33:53;;;;;;;;;24.25;24.25;;;;;;;;5058418;28;46563;-64
2022/06/04 03:36:19;;;;;;;;;24.75;22.25;;;;;;;;5057445;28;45318;-65
2022/06/04 03:38:44;;;;;;;;;29.25;28.75;;;;;;;;5058036;28;45337;-66
2022/06/04 03:41:10;;;;;;;;;26.25;25.25;;;;;;;;5061961;28;45469;-64
2022/06/04 03:43:35;;;;;;;;;21.25;21.25;;;;;;;;5049053;28;47329;-65
2022/06/04 03:46:00;;;;;;;;;22.25;22.25;;;;;;;;5060597;28;45488;-64
2022/06/04 03:48:26;;;;;;;;;24.25;24.00;;;;;;;;5056124;28;45548;-65
2022/06/04 03:50:51;;;;;;;;;24.75;24.00;;;;;;;;5062959;28;45326;-64
2022/06/04 03:53:16;;;;;;;;;23.00;23.00;;;;;;;;5060248;28;45451;-64
2022/06/04 03:55:41;;;;;;;;;30.25;28.25;;;;;;;;5060312;28;45663;-64
2022/06/04 03:58:06;;;;;;;;;27.00;25.50;;;;;;;;5060673;28;45335;-64
2022/06/04 04:00:33;;;;;;;;;28.00;25.00;;;;;;;;5056710;28;45310;-64
2022/06/04 04:03:01;;;;;;;;;26.00;24.25;;;;;;;;5059936;28;45614;-67
2022/06/04 04:05:28;;;;;;;;;27.00;26.00;;;;;;;;5060707;28;45429;-64
2022/06/04 04:07:54;;;;;;;;;26.50;25.50;;;;;;;;5039298;28;45403;-64
2022/06/04 04:10:20;;;;;;;;;24.50;23.75;;;;;;;;5044084;28;45410;-65
2022/06/04 04:12:45;;;;;;;;;26.75;24.50;;;;;;;;5067656;28;45730;-65
2022/06/04 04:15:11;;;;;;;;;25.25;25.25;;;;;;;;5048650;28;45429;-64
2022/06/04 04:17:37;;;;;;;;;25.25;25.25;;;;;;;;5058348;28;45444;-65
2022/06/04 04:20:06;;;;;;;;;25.25;23.75;;;;;;;;5056289;28;45448;-66
2022/06/04 04:22:31;;;;;;;;;26.75;26.75;;;;;;;;5059755;28;45871;-65
2022/06/04 04:24:56;;;;;;;;;27.50;26.50;;;;;;;;5042951;28;45357;-64
2022/06/04 04:27:22;;;;;;;;;23.75;22.50;;;;;;;;5060028;28;45362;-64
2022/06/04 04:29:47;;;;;;;;;26.00;26.00;;;;;;;;5059984;28;45348;-65
2022/06/04 04:32:12;;;;;;;;;24.75;24.25;;;;;;;;5039207;28;46509;-64
2022/06/04 04:34:38;;;;;;;;;28.25;26.50;;;;;;;;5056769;28;45643;-64
2022/06/04 04:37:03;;;;;;;;;23.25;23.25;;;;;;;;5042675;28;45307;-64
2022/06/04 04:39:28;;;;;;;;;25.25;24.25;;;;;;;;5059814;28;45532;-63
2022/06/04 04:41:54;;;;;;;;;28.25;26.50;;;;;;;;5059506;28;46678;-63
2022/06/04 04:44:19;;;;;;;;;24.25;23.00;;;;;;;;5062222;28;45313;-63
2022/06/04 04:46:44;;;;;;;;;21.50;20.00;;;;;;;;5059488;28;45518;-65
2022/06/04 04:49:09;;;;;;;;;24.50;23.50;;;;;;;;5057908;28;45424;-65
2022/06/04 04:51:39;;;;;;;;;27.00;24.75;;;;;;;;5053705;28;45840;-65
2022/06/04 04:54:04;;;;;;;;;30.25;27.25;;;;;;;;5071904;28;45357;-65
2022/06/04 04:56:29;;;;;;;;;27.00;25.75;;;;;;;;5059909;28;45392;-68
2022/06/04 04:58:55;;;;;;;;;24.25;22.75;;;;;;;;5059481;28;45412;-70
2022/06/04 05:01:22;;;;;;;;;28.00;26.75;;;;;;;;5040220;28;48450;-68
2022/06/04 05:03:47;;;;;;;;;28.50;25.75;;;;;;;;5041297;28;46058;-69
2022/06/04 05:06:13;;;;;;;;;24.00;24.00;;;;;;;;5038542;28;45558;-68
2022/06/04 05:08:39;;;;;;;;;25.50;23.75;;;;;;;;5043465;28;45449;-68
2022/06/04 05:11:14;;;;;;;;;29.25;29.25;;;;;;;;5058946;28;45768;-69
2022/06/04 05:13:40;;;;;;;;;28.00;26.50;;;;;;;;5059218;28;45295;-70
2022/06/04 05:16:05;;;;;;;;;25.00;24.25;;;;;;;;5059391;28;45265;-69
2022/06/04 05:18:31;;;;;;;;;23.00;20.50;;;;;;;;5055302;28;45295;-70
2022/06/04 05:21:06;;;;;;;;;24.75;24.75;;;;;;;;5060471;28;46372;-69
2022/06/04 05:23:31;;;;;;;;;23.25;21.25;;;;;;;;5060310;28;45516;-69
2022/06/04 05:25:57;;;;;;;;;25.00;24.50;;;;;;;;5058968;28;45450;-69
2022/06/04 05:28:23;;;;;;;;;24.00;24.00;;;;;;;;5059139;28;45300;-68
2022/06/04 05:30:48;;;;;;;;;27.00;27.00;;;;;;;;5059279;28;45817;-68
2022/06/04 05:33:13;;;;;;;;;22.00;22.00;;;;;;;;5055838;28;45421;-68
2022/06/04 05:35:39;;;;;;;;;25.75;25.75;;;;;;;;5056598;28;45359;-69
2022/06/04 05:38:04;;;;;;;;;25.25;24.25;;;;;;;;5054518;28;45444;-69
2022/06/04 05:40:29;;;;;;;;;27.50;26.25;;;;;;;;5055414;28;45648;-68
2022/06/04 05:42:54;;;;;;;;;25.75;22.75;;;;;;;;5038212;28;46060;-68
2022/06/04 05:45:20;;;;;;;;;23.50;22.25;;;;;;;;5055470;28;45387;-68
2022/06/04 05:47:45;;;;;;;;;24.00;22.50;;;;;;;;5056505;28;45388;-69
2022/06/04 05:50:10;;;;;;;;;24.25;23.25;;;;;;;;5055430;28;45608;-69
2022/06/04 05:52:35;;;;;;;;;22.25;21.50;;;;;;;;5055733;28;45479;-68
2022/06/04 05:55:00;;;;;;;;;24.00;24.00;;;;;;;;5038722;28;45628;-68
2022/06/04 05:57:26;;;;;;;;;24.50;23.25;;;;;;;;5037706;28;45514;-69
2022/06/04 05:59:51;;;;;;;;;22.00;22.00;;;;;;;;5042217;28;48449;-68
2022/06/04 06:02:16;;;;;;;;;25.25;24.25;;;;;;;;5055192;28;45411;-68
2022/06/04 06:04:41;;;;;;;;;22.75;21.25;;;;;;;;5055414;28;45768;-69
2022/06/04 06:07:07;;;;;;;;;22.50;21.00;;;;;;;;5039477;28;45498;-67
2022/06/04 06:09:32;;;;;;;;;22.50;22.50;;;;;;;;5036564;28;46385;-67
2022/06/04 06:11:57;;;;;;;;;23.50;20.00;;;;;;;;5041055;28;45887;-67
2022/06/04 06:14:23;;;;;;;;;22.75;22.75;;;;;;;;5041905;28;45444;-67
2022/06/04 06:16:49;;;;;;;;;26.00;26.00;;;;;;;;5040491;28;45302;-67
2022/06/04 06:19:16;;;;;;;;;24.00;23.75;;;;;;;;5040129;28;47554;-67
2022/06/04 06:21:42;;;;;;;;;24.75;23.00;;;;;;;;5055225;28;45472;-68
2022/06/04 06:24:08;;;;;;;;;26.00;24.25;;;;;;;;5055449;28;45348;-68
2022/06/04 06:26:34;;;;;;;;;25.00;24.00;;;;;;;;5041993;28;45704;-67
2022/06/04 06:29:01;;;;;;;;;19.00;19.00;;;;;;;;5054852;28;45500;-67
2022/06/04 06:31:26;;;;;;;;;20.75;20.75;;;;;;;;5054539;28;45436;-67
2022/06/04 06:33:52;;;;;;;;;18.00;18.00;;;;;;;;5054877;28;45334;-68
2022/06/04 06:36:18;;;;;;;;;21.75;21.75;;;;;;;;5054967;28;46102;-68
2022/06/04 06:38:45;;;;;;;;;22.75;21.50;;;;;;;;5041817;28;46365;-68
2022/06/04 06:41:12;;;;;;;;;24.00;20.75;;;;;;;;5054839;28;45571;-68
2022/06/04 06:43:47;;;;;;;;;24.50;23.75;;;;;;;;5054609;28;45557;-67
2022/06/04 06:46:20;;;;;;;;;26.00;25.00;;;;;;;;5039860;28;45817;-67
2022/06/04 06:48:47;;;;;;;;;23.75;23.25;;;;;;;;5036461;28;47292;-67
2022/06/04 06:51:24;;;;;;;;;26.75;26.75;;;;;;;;5054952;28;45523;-68
2022/06/04 06:53:49;;;;;;;;;25.00;24.75;;;;;;;;5044057;28;45284;-68
2022/06/04 06:56:16;;;;;;;;;22.50;22.50;;;;;;;;5041016;28;45492;-68
2022/06/04 06:58:41;;;;;;;;;23.75;21.75;;;;;;;;5053753;28;46568;-68
2022/06/04 07:01:07;;;;;;;;;26.25;26.25;;;;;;;;5038382;28;45489;-67
2022/06/04 07:03:35;;;;;;;;;23.25;23.25;;;;;;;;5054738;28;46350;-68
2022/06/04 07:06:01;;;;;;;;;19.75;19.75;;;;;;;;5040236;28;45553;-68
2022/06/04 07:08:26;;;;;;;;;27.25;25.25;;;;;;;;5054085;28;45765;-70
2022/06/04 07:10:52;;;;;;;;;26.50;25.25;;;;;;;;5040585;28;45458;-70
2022/06/04 07:13:17;;;;;;;;;25.25;24.75;;;;;;;;5054141;28;45501;-67
2022/06/04 07:15:43;;;;;;;;;26.50;23.75;;;;;;;;5054340;28;45455;-67
2022/06/04 07:18:12;;;;;;;;;28.50;26.75;;;;;;;;5054559;28;46688;-68
2022/06/04 07:20:39;;;;;;;;;28.00;24.00;;;;;;;;5052997;28;45470;-68
2022/06/04 07:23:04;;;;;;;;;25.75;23.75;;;;;;;;5054253;28;45369;-68
2022/06/04 07:25:29;;;;;;;;;25.00;25.00;;;;;;;;5054103;28;45559;-68
2022/06/04 07:27:54;;;;;;;;;32.75;29.25;;;;;;;;5036650;28;47507;-65
2022/06/04 07:30:20;;;;;;;;;34.00;30.75;;;;;;;;5053852;28;45397;-66
2022/06/04 07:32:45;;;;;;;;;27.50;27.00;;;;;;;;5041206;28;45377;-65
2022/06/04 07:35:10;;;;;;;;;26.00;26.00;;;;;;;;5053885;28;45412;-65
2022/06/04 07:37:35;;;;;;;;;34.50;32.50;;;;;;;;5039949;28;48687;-65
2022/06/04 07:40:01;;;;;;;;;28.50;26.75;;;;;;;;5052802;28;45488;-66
2022/06/04 07:42:27;;;;;;;;;29.50;27.00;;;;;;;;5052492;28;47652;-66
2022/06/04 07:44:52;;;;;;;;;31.75;30.75;;;;;;;;5053997;28;45453;-66
2022/06/04 07:47:17;;;;;;;;;28.25;24.75;;;;;;;;5053962;28;46044;-66
2022/06/04 07:49:43;;;;;;;;;27.75;26.75;;;;;;;;5054126;28;45613;-66
2022/06/04 07:52:08;;;;;;;;;31.75;29.50;;;;;;;;5038578;28;45312;-65
2022/06/04 07:54:34;;;;;;;;;26.50;26.50;;;;;;;;5054356;28;45353;-65
2022/06/04 07:57:00;;;;;;;;;27.75;27.25;;;;;;;;5054299;28;45620;-65
2022/06/04 07:59:26;;;;;;;;;34.00;31.75;;;;;;;;5052707;28;45471;-65
2022/06/04 08:01:51;;;;;;;;;31.25;30.00;;;;;;;;5053573;28;45476;-64
2022/06/04 08:04:16;;;;;;;;;28.00;26.25;;;;;;;;5054086;28;45409;-64
2022/06/04 08:06:41;;;;;;;;;38.50;36.00;;;;;;;;5035886;28;48411;-64
2022/06/04 08:09:07;;;;;;;;;31.25;31.25;;;;;;;;5054234;28;46139;-64
2022/06/04 08:11:32;;;;;;;;;30.25;30.00;;;;;;;;5057769;28;45368;-65
2022/06/04 08:14:06;;;;;;;;;39.00;31.25;;;;;;;;5057001;28;45511;-65
2022/06/04 08:16:32;;;;;;;;;30.75;28.75;;;;;;;;5056473;28;45537;-67
2022/06/04 08:18:58;;;;;;;;;29.00;29.00;;;;;;;;5040010;28;45457;-65
2022/06/04 08:21:24;;;;;;;;;36.50;34.50;;;;;;;;5039369;28;45366;-65
2022/06/04 08:23:49;;;;;;;;;30.50;29.75;;;;;;;;5057575;28;45210;-66
2022/06/04 08:26:14;;;;;;;;;29.00;27.75;;;;;;;;5056871;28;45707;-67
2022/06/04 08:28:40;;;;;;;;;37.75;34.75;;;;;;;;5056974;28;45478;-67
2022/06/04 08:31:07;;;;;;;;;30.00;27.75;;;;;;;;5056943;28;45178;-69
2022/06/04 08:33:32;;;;;;;;;35.75;33.25;;;;;;;;5038966;28;45487;-68
2022/06/04 08:35:58;;;;;;;;;39.00;35.50;;;;;;;;5057230;28;46285;-68
2022/06/04 08:38:23;;;;;;;;;28.25;28.00;;;;;;;;5057357;28;45368;-69
2022/06/04 08:40:50;;;;;;;;;29.50;28.50;;;;;;;;5043498;28;45553;-69
2022/06/04 08:43:34;;;;;;;;;31.75;31.75;;;;;;;;5056897;28;45385;-69
2022/06/04 08:46:01;;;;;;;;;34.00;33.50;;;;;;;;5056757;28;45433;-69
2022/06/04 08:48:37;;;;;;;;;30.75;26.75;;;;;;;;5023056;28;45629;-69
2022/06/04 08:51:06;;;;;;;;;35.25;34.00;;;;;;;;5052826;28;45325;-69
2022/06/04 08:53:31;;;;;;;;;35.00;33.50;;;;;;;;5055019;28;45597;-70
2022/06/04 08:58:55;;;;;;;;;31.00;30.75;;;;;;;;5056269;28;45458;-70
2022/06/04 09:01:27;;;;;;;;;31.75;31.50;;;;;;;;5056600;28;45316;-68
2022/06/04 09:04:01;;;;;;;;;32.00;30.50;;;;;;;;5056876;28;45451;-69
2022/06/04 09:06:29;;;;;;;;;32.50;32.50;;;;;;;;5040339;28;46561;-69
2022/06/04 09:09:05;;;;;;;;;30.00;26.00;;;;;;;;5052791;28;45365;-69
2022/06/04 09:11:33;;;;;;;;;38.25;35.50;;;;;;;;5056432;28;45341;-69
2022/06/04 09:14:08;;;;;;;;;34.00;30.00;;;;;;;;5042938;28;45592;-69
2022/06/04 09:16:36;;;;;;;;;27.75;27.75;;;;;;;;5056101;28;46124;-68
2022/06/04 09:19:02;;;;;;;;;28.00;27.00;;;;;;;;5056303;28;45409;-71
2022/06/04 09:21:32;;;;;;;;;27.75;26.00;;;;;;;;5037940;28;45392;-71
2022/06/04 09:23:57;;;;;;;;;22.00;22.00;;;;;;;;5056377;28;45337;-69
2022/06/04 09:26:31;;;;;;;;;24.00;23.75;;;;;;;;5042054;28;47409;-69
2022/06/04 09:29:05;;;;;;;;;25.50;21.50;;;;;;;;5051972;28;45582;-69
2022/06/04 09:31:33;;;;;;;;;21.25;21.25;;;;;;;;5039232;28;45581;-69
2022/06/04 09:34:13;;;;;;;;;22.75;21.75;;;;;;;;5055534;28;45587;-68
2022/06/04 09:36:40;;;;;;;;;19.50;19.00;;;;;;;;5049350;28;45724;-70
2022/06/04 09:39:17;;;;;;;;;18.50;18.50;;;;;;;;5032656;28;45535;-71
2022/06/04 09:41:48;;;;;;;;;17.25;17.25;;;;;;;;5045036;28;45959;-71
2022/06/04 09:44:15;;;;;;;;;17.50;16.75;;;;;;;;5020101;28;45534;-71
2022/06/04 09:46:43;;;;;;;;;16.25;16.25;;;;;;;;5039128;28;47689;-70
2022/06/04 09:49:17;;;;;;;;;14.25;14.25;;;;;;;;5029704;28;45619;-70
2022/06/04 09:51:43;;;;;;;;;16.75;16.75;;;;;;;;5038277;28;45431;-69
2022/06/04 09:54:42;;;;;;;;;16.50;14.75;;;;;;;;5037605;28;45522;-71
2022/06/04 09:57:23;;;;;;;;;15.50;15.50;;;;;;;;4985912;28;46447;-68
2022/06/04 09:59:53;;;;;;;;;15.50;15.50;;;;;;;;4966322;28;45593;-70
2022/06/04 10:02:19;;;;;;;;;17.00;16.00;;;;;;;;4986339;28;45414;-71
2022/06/04 10:04:47;;;;;;;;;16.75;15.50;;;;;;;;4986039;28;45453;-71
2022/06/04 10:07:15;;;;;;;;;16.50;16.50;;;;;;;;4997353;28;47886;-69
2022/06/04 10:09:57;;;;;;;;;19.25;18.50;;;;;;;;4979944;28;45493;-71
2022/06/04 10:15:23;;;;;;;;;16.50;16.50;;;;;;;;4998236;28;45505;-72
2022/06/04 10:17:57;;;;;;;;;14.50;14.50;;;;;;;;4999663;28;45641;-72
2022/06/04 10:20:23;;;;;;;;;12.00;12.00;;;;;;;;4994872;28;45461;-71
2022/06/04 10:22:49;;;;;;;;;14.50;14.50;;;;;;;;4999141;28;47793;-72
2022/06/04 10:25:20;;;;;;;;;12.00;10.75;;;;;;;;4976559;28;45460;-70
2022/06/04 10:28:21;;;;;;;;;10.75;10.75;;;;;;;;4987638;28;46638;-68
2022/06/04 10:30:55;;;;;;;;;8.75;8.75;;;;;;;;4895217;28;45624;-69
2022/06/04 10:33:20;;;;;;;;;7.75;7.75;;;;;;;;4937467;28;45641;-68
2022/06/04 10:35:45;;;;;;;;;7.25;7.25;;;;;;;;4953076;28;45530;-70
2022/06/04 10:38:33;;;;;;;;;6.25;6.25;;;;;;;;4951164;28;47619;-70
2022/06/04 10:40:58;;;;;;;;;7.75;7.00;;;;;;;;4934691;28;46550;-70
2022/06/04 10:43:29;;;;;;;;;8.50;8.50;;;;;;;;4951350;28;45393;-70
2022/06/04 10:46:08;;;;;;;;;6.00;6.00;;;;;;;;4950201;28;45617;-69
2022/06/04 10:48:45;;;;;;;;;7.75;6.50;;;;;;;;4949937;28;46476;-69
2022/06/04 10:51:28;;;;;;;;;8.00;8.00;;;;;;;;4950883;28;45544;-68
2022/06/04 10:54:29;;;;;;;;;8.00;8.00;;;;;;;;4951368;28;45708;-68
2022/06/04 10:57:08;;;;;;;;;8.00;8.00;;;;;;;;4878635;29;45588;-70
2022/06/04 10:59:52;;;;;;;;;10.00;10.00;;;;;;;;4893212;28;46000;-68
2022/06/04 11:02:23;;;;;;;;;11.00;8.50;;;;;;;;4892251;28;46554;-68
2022/06/04 11:04:58;;;;;;;;;8.75;8.75;;;;;;;;4932121;28;45542;-69
2022/06/04 11:07:32;;;;;;;;;8.00;8.00;;;;;;;;4967754;28;45788;-69
2022/06/04 11:09:58;;;;;;;;;9.50;8.50;;;;;;;;4973851;28;48254;-68
2022/06/04 11:12:44;;;;;;;;;9.00;8.00;;;;;;;;4984696;28;46856;-67
2022/06/04 11:15:14;;;;;;;;;7.50;7.50;;;;;;;;4976074;28;45495;-68
2022/06/04 11:17:54;;;;;;;;;11.25;10.50;;;;;;;;4981795;28;45551;-68
2022/06/04 11:20:20;;;;;;;;;9.00;9.00;;;;;;;;4970416;28;46349;-68
2022/06/04 11:22:50;;;;;;;;;11.25;8.50;;;;;;;;4967776;28;45465;-67
2022/06/04 11:25:24;;;;;;;;;10.00;10.00;;;;;;;;4970014;28;45353;-69
2022/06/04 11:27:53;;;;;;;;;10.00;10.00;;;;;;;;4968770;28;45489;-69
2022/06/04 11:30:21;;;;;;;;;10.25;9.75;;;;;;;;4982578;28;48972;-68
2022/06/04 11:32:58;;;;;;;;;9.25;9.25;;;;;;;;5033707;28;46247;-67
2022/06/04 11:35:27;;;;;;;;;8.50;7.50;;;;;;;;5052245;28;45333;-68
2022/06/04 11:38:11;;;;;;;;;9.75;9.75;;;;;;;;5033091;28;45430;-67
2022/06/04 11:40:37;;;;;;;;;10.50;9.50;;;;;;;;5065924;28;46216;-67
2022/06/04 11:43:05;;;;;;;;;10.00;10.00;;;;;;;;5056461;28;45419;-69
2022/06/04 11:45:31;;;;;;;;;9.25;9.25;;;;;;;;5059039;28;45313;-68
2022/06/04 11:47:56;;;;;;;;;9.25;9.25;;;;;;;;5058084;28;45288;-68
2022/06/04 11:50:32;;;;;;;;;8.25;7.25;;;;;;;;5057123;28;46210;-68
2022/06/04 11:53:10;;;;;;;;;11.50;11.50;;;;;;;;5038282;28;45282;-68
2022/06/04 11:55:43;;;;;;;;;9.25;9.25;;;;;;;;5069058;28;45374;-67
2022/06/04 11:58:28;;;;;;;;;10.00;10.00;;;;;;;;5058722;28;45218;-68
2022/06/04 12:00:56;;;;;;;;;9.00;9.00;;;;;;;;5057075;28;46579;-67
2022/06/04 12:03:32;;;;;;;;;12.25;10.25;;;;;;;;5055926;28;45934;-69
2022/06/04 12:06:11;;;;;;;;;10.25;10.25;;;;;;;;5055392;28;45412;-66
2022/06/04 12:09:03;;;;;;;;;11.50;11.50;;;;;;;;5039325;28;45517;-68
2022/06/04 12:11:28;;;;;;;;;11.00;11.00;;;;;;;;4971756;28;46182;-68
2022/06/04 12:14:11;;;;;;;;;10.00;10.00;;;;;;;;4986564;28;45489;-68
2022/06/04 12:16:42;;;;;;;;;10.50;9.75;;;;;;;;4997515;28;45588;-69
2022/06/04 12:25:06;;;;;;;;;10.50;8.75;;;;;;;;4996312;28;45926;-68
2022/06/04 12:27:33;;;;;;;;;10.00;10.00;;;;;;;;4979884;28;45643;-67
2022/06/04 12:29:59;;;;;;;;;10.00;10.00;;;;;;;;4988366;28;46008;-70
2022/06/04 12:32:29;;;;;;;;;11.25;11.25;;;;;;;;4987300;28;45695;-69
2022/06/04 12:35:04;;;;;;;;;11.25;11.25;;;;;;;;4988959;28;47734;-69
2022/06/04 12:37:31;;;;;;;;;10.50;9.75;;;;;;;;4992676;28;45468;-70
2022/06/04 12:39:58;;;;;;;;;11.75;11.50;;;;;;;;4992223;28;45603;-70
2022/06/04 12:42:25;;;;;;;;;10.50;10.50;;;;;;;;4973764;28;47073;-69
2022/06/04 12:44:55;;;;;;;;;10.00;10.00;;;;;;;;4991627;28;45551;-68
2022/06/04 12:47:23;;;;;;;;;10.25;10.00;;;;;;;;4997509;28;45497;-68
2022/06/04 12:49:54;;;;;;;;;13.25;12.00;;;;;;;;5052432;28;45413;-69
2022/06/04 12:52:44;;;;;;;;;12.75;11.50;;;;;;;;5036002;28;48553;-70
2022/06/04 12:55:11;;;;;;;;;12.00;12.00;;;;;;;;5066656;28;45703;-69
2022/06/04 12:57:50;;;;;;;;;9.50;8.75;;;;;;;;5054604;28;45508;-70
2022/06/04 13:00:18;;;;;;;;;10.50;10.50;;;;;;;;5059468;28;45799;-70
2022/06/04 13:03:02;;;;;;;;;12.75;11.50;;;;;;;;5037030;28;47751;-70
2022/06/04 13:05:28;;;;;;;;;10.50;10.50;;;;;;;;5064281;28;45868;-70
2022/06/04 13:08:08;;;;;;;;;10.00;9.00;;;;;;;;5056237;28;45412;-70
2022/06/04 13:10:40;;;;;;;;;10.75;10.75;;;;;;;;5062299;28;45432;-69
2022/06/04 13:13:06;;;;;;;;;8.25;8.25;;;;;;;;5056694;28;45739;-66
2022/06/04 13:15:52;;;;;;;;;11.00;10.00;;;;;;;;5056609;28;45487;-67
2022/06/04 13:18:23;;;;;;;;;11.50;11.50;;;;;;;;5044770;28;45446;-67
2022/06/04 13:20:57;;;;;;;;;9.75;9.75;;;;;;;;5054856;28;45284;-67
2022/06/04 13:23:26;;;;;;;;;11.00;9.50;;;;;;;;5048219;28;46520;-67
2022/06/04 13:25:51;;;;;;;;;13.25;12.00;;;;;;;;5038217;28;45383;-67
2022/06/04 13:28:24;;;;;;;;;10.00;10.00;;;;;;;;5067580;28;46104;-67
2022/06/04 13:30:50;;;;;;;;;9.75;8.75;;;;;;;;5051918;28;45702;-66
2022/06/04 13:33:15;;;;;;;;;10.00;10.00;;;;;;;;5062944;28;45955;-68
2022/06/04 13:35:46;;;;;;;;;9.75;9.75;;;;;;;;5066755;28;45499;-69
2022/06/04 13:38:24;;;;;;;;;8.75;8.75;;;;;;;;5068193;28;45535;-68
2022/06/04 13:40:56;;;;;;;;;23.50;23.00;;;;;;;;5065212;28;45380;-72
2022/06/04 13:43:21;;;;;;;;;10.75;10.75;;;;;;;;5073667;28;46767;-68
2022/06/04 13:45:46;;;;;;;;;10.75;10.75;;;;;;;;5061631;28;45468;-68
2022/06/04 13:48:22;;;;;;;;;8.50;8.00;;;;;;;;5067536;28;45438;-67
2022/06/04 13:50:53;;;;;;;;;6.00;6.00;;;;;;;;5050478;28;45430;-67
2022/06/04 13:53:21;;;;;;;;;5.25;5.25;;;;;;;;5063802;28;45681;-66
2022/06/04 13:55:55;;;;;;;;;4.00;4.00;;;;;;;;5046521;28;46539;-68
2022/06/04 13:58:23;;;;;;;;;4.50;4.50;;;;;;;;5068692;28;45376;-67
2022/06/04 14:00:53;;;;;;;;;4.50;4.50;;;;;;;;5051066;28;45377;-66
2022/06/04 14:03:21;;;;;;;;;4.00;4.00;;;;;;;;5060831;28;45899;-67
2022/06/04 14:05:48;;;;;;;;;6.50;5.50;;;;;;;;5069228;28;45607;-67
2022/06/04 14:08:20;;;;;;;;;6.00;6.00;;;;;;;;5050750;28;45371;-67
2022/06/04 14:11:06;;;;;;;;;6.00;6.00;;;;;;;;5065742;28;45417;-62
2022/06/04 14:13:35;;;;;;;;;5.00;5.00;;;;;;;;5053931;28;46060;-66
2022/06/04 14:16:12;;;;;;;;;6.00;6.00;;;;;;;;5062815;28;45694;-66
2022/06/04 14:18:40;;;;;;;;;5.50;5.50;;;;;;;;5051851;28;45467;-67
2022/06/04 14:21:24;;;;;;;;;5.00;5.00;;;;;;;;5062563;28;45432;-68
2022/06/04 14:23:55;;;;;;;;;6.75;6.75;;;;;;;;5048480;28;45692;-69
2022/06/04 14:26:28;;;;;;;;;7.00;7.00;;;;;;;;5060515;28;45546;-68
2022/06/04 14:28:57;;;;;;;;;7.75;7.75;;;;;;;;5049626;28;45858;-69
2022/06/04 14:31:23;;;;;;;;;7.00;7.00;;;;;;;;5055251;28;45501;-67
2022/06/04 14:33:48;;;;;;;;;6.00;6.00;;;;;;;;5060407;28;46264;-68
2022/06/04 14:36:21;;;;;;;;;7.00;7.00;;;;;;;;5067700;28;45491;-69
2022/06/04 14:38:47;;;;;;;;;6.75;6.75;;;;;;;;5049387;28;45367;-67
2022/06/04 14:41:15;;;;;;;;;4.75;4.75;;;;;;;;5034224;28;45432;-71
2022/06/04 14:43:40;;;;;;;;;7.00;5.75;;;;;;;;5053169;28;48726;-68
2022/06/04 14:46:24;;;;;;;;;8.00;6.75;;;;;;;;5063983;28;45345;-68
2022/06/04 14:49:08;;;;;;;;;17.00;16.25;;;;;;;;5049864;28;45362;-68
2022/06/04 14:51:34;;;;;;;;;17.25;14.25;;;;;;;;5061195;28;45622;-69